East Liberty, Pennsylvania
Current Conditions -  °F | °C
As of 12:26 PM on Thursday 30 Oct 2014 (Local Time) from KAGC Reporting Station
Overcast Overcast  
Wind Chill: 47°   Ceiling: 4700
Heat Index: 49°   Visibility: 10mi
Dew Point: 35°   Wind: 5mph
Humidity: 59%   Direction: 360°N
Pressure: 30.09"   Gusts: NA
Location:  40.4715°N, 79.9138°W
Report Text: KAGC 301626Z 36004KT 10SM SCT024 OVC047 09/02 A3009 RMK AO2 T00940017
Loading
Personal Weather Stations






























Interactive Weather Map
Tropical Storm Tracking
New forecast layout! Learn more

10-Day Weather Forecast

Advertisements
Track Severe Weather on mobile